Terminal Aerodrome Forecast
Issued by NWS Green Bay, WI

Home | Current Version | Previous Version | Text Only | Print | Product List | Glossary Off
Versions: 1 2 3 4 5 6 7 8 9 10 11 12 13 14 15 16 17 18 19 20 21 22 23 24 25 26 27 28 29 30 31 32 33 34 35 36 37 38 39 40 41 42 43

000
FTUS43 KGRB 261700 RRA
TAFGRB
TAF
KGRB 261741Z 2618/2718 VRB03KT P6SM SCT015
     FM262000 16003KT 5SM BR OVC020
     FM270300 35004KT 6SM BR OVC018
     FM270900 02005KT 5SM -SN BR BKN015
     FM271400 03005KT 1SM -SN BR OVC009
      TEMPO 2714/2718 2SM -RASN BR=

USA.gov is the U.S. government's official web portal to all federal, state and local government web resources and services.